Benet Lake, Wisconsin
Current Conditions -  °F | °C
As of 11:53 AM on Wednesday 28 Jan 2015 (Local Time) from KENW Reporting Station
Clear Clear  
Wind Chill: 24°   Ceiling: Unl
Heat Index: 33°   Visibility: 10mi
Dew Point: 17°   Wind: 12mph
Humidity: 52%   Direction: 180°S
Pressure: 30.16"   Gusts: NA
Location:  42.54°N, 88.02°W
Report Text: KENW 281753Z 18010KT 10SM CLR 01/M08 A3016 RMK AO2 SLP224 T00061083 10006 21072 58028
Loading
Personal Weather Stations






























Interactive Weather Map New forecast layout! Learn more

10-Day Weather Forecast

Advertisements
Track Severe Weather on mobile